Listado único de aspirantes (Periodo de valoración 31 octubre de 2021)


* Listado ordenado por Apellidos, Nombre. Recuerde que también puede ordenarlo por el Total Autobaremo

Listado único de aspirantes admitidos en turno libre en la bolsa de selección de personal estatutario temporal, categoría: Enfermera
Apellidos, Nombre Exp. SAS Auto. Exp. NO SAS Auto. Form. Auto. otros méritos Total Auto. Exp. SAS Baremo Exp. NO SAS Baremo Form. Baremo Otros méritos Punt. Total Baremo Fecha Act.
SEGURA GARCIA, JUANA MARIA 53,700 22,800 39,000 0,200 109,200 53,700 22,200 36,000 0,050 106,050 15/12/2022
SEGURA GÓMEZ, MARINA 9,000 1,800 39,000 0,000 49,800 9,000 0,000 39,000 0,000 48,000 15/12/2022
SEGURA GONZALVEZ, SUSANA 34,200 24,550 39,000 6,200 103,950 34,200 24,450 39,000 4,000 101,650 15/12/2022
SEGURA GUILLEN, TANIA 11,700 29,700 35,000 1,000 77,400 11,700 28,800 35,000 1,000 76,500 15/12/2022
SEGURA LUJÁN, MIRIAM MERCEDES 1,200 4,200 36,000 0,800 42,200 1,200 1,800 36,000 0,800 39,800 15/12/2022
SEGURA MARTINEZ, MARIA DELIA 61,200 0,000 32,000 6,600 99,800 61,200 0,000 32,000 4,825 98,025 15/12/2022
SEGURA MEDINA, REYES 11,700 1,800 36,000 1,300 50,800 11,700 0,000 36,000 1,000 48,700 15/12/2022
SEGURA MILLÁN, DIONISIO 5,700 36,300 17,550 3,550 63,100 5,700 17,400 15,175 3,250 41,525 15/12/2022
SEGURA PÉREZ, BEATRIZ 4,800 3,650 36,000 0,000 44,450 4,800 0,000 36,000 0,000 40,800 15/12/2022
SEGURA RAMAL, NOELIA 2,400 4,200 24,400 6,000 37,000 2,400 4,200 21,400 6,000 34,000 15/12/2022
SEGURA RAMIRO, VIRGINIA 0,000 6,000 36,000 2,600 44,600 0,000 6,000 36,000 1,425 43,425 15/12/2022
SEGURA RAMOS, SUSANA 16,200 50,400 36,000 2,500 105,100 16,200 50,400 36,000 0,500 103,100 15/12/2022
SEGURA REMESAL, MARIA 7,200 0,000 36,000 3,000 46,200 7,200 0,000 36,000 2,700 45,900 15/12/2022
SEGURA REY, MARIA DE LOS ANGELES 16,800 0,850 39,000 3,950 60,600 16,800 0,850 39,000 2,900 59,550 15/12/2022
SEGURA RODRIGUEZ, DANIEL JESUS 0,000 12,300 36,000 0,000 48,300 0,000 6,900 36,000 0,000 42,900 15/12/2022
SEGURA RODRIGUEZ, NEREA 0,300 0,200 39,000 6,000 45,500 0,300 0,200 39,000 6,000 45,500 15/12/2022
SEGURA ROMERO, SERGIO 1,200 26,700 36,000 0,000 63,900 1,200 18,900 36,000 0,000 56,100 15/12/2022
SEGURA RUIZ, DULCE MARIA 6,300 0,000 36,000 0,000 42,300 6,300 0,000 34,000 0,000 40,300 15/12/2022
SEGURA RUIZ, ROCIO 38,700 17,100 35,000 3,400 94,200 38,700 17,100 32,000 3,000 90,800 15/12/2022
SEGURA SÁNCHEZ, FÉLIX 11,100 0,000 36,000 1,600 48,700 11,100 0,000 36,000 1,300 48,400 15/12/2022
SEGURA SÁNCHEZ, JUANA Mª 0,000 0,000 15,625 0,000 15,625 0,000 0,000 7,500 0,000 7,500 15/12/2022
SEGURA SANCHEZ, MARIA DEL PILAR 19,200 0,000 36,000 5,900 61,100 19,200 0,000 36,000 3,700 58,900 15/12/2022
SEGURA SANTOS, TAMARA DEL ROCIO 6,000 0,000 36,000 0,000 42,000 6,000 0,000 36,000 0,000 42,000 15/12/2022
SEGURA SCHMOE, MARIA NOELIA 0,000 0,000 4,450 0,000 4,450 0,000 0,000 1,725 0,000 1,725 15/12/2022
SEGURA SIMÓN, ROCÍO 15,600 1,100 36,000 6,550 59,250 15,600 0,900 36,000 6,050 58,550 15/12/2022
SEGURA SOLER, INGRID 1,250 20,100 36,000 0,500 57,850 1,250 18,000 36,000 0,500 55,750 15/12/2022
SEGURA TÉLLEZ, MARÍA 0,150 0,200 37,000 0,000 37,350 0,150 0,000 33,000 0,000 33,150 15/12/2022
SEGURA TORRES, FRANCISCO JOSÉ 70,000 0,000 36,000 3,000 109,000 70,000 0,000 32,000 3,000 105,000 15/12/2022
SEGURA TRUJILLO, SARA 0,000 0,300 32,000 6,650 38,950 0,000 0,300 32,000 6,050 38,350 15/12/2022
SEGURA VALENCIA, MANUEL 0,000 45,000 30,000 0,600 75,600 0,000 27,600 21,350 0,000 48,950 15/12/2022
SEGUROLA SEGADOR, GUADALUPE 23,150 10,900 36,000 1,050 71,100 23,150 10,900 36,000 1,050 71,100 15/12/2022
SEIJO LÓPEZ, MARIA LUISA 9,300 0,300 36,000 0,300 45,900 9,300 0,000 36,000 0,300 45,600 15/12/2022
SEIJO NEVA, VANESA 3,000 8,100 36,000 0,400 47,500 3,000 8,100 36,000 0,400 47,500 15/12/2022
SEISDEDOS SARASOLA, AMAYA 48,900 16,700 34,000 0,000 99,600 48,900 16,200 34,000 0,000 99,100 15/12/2022
SELFA CONEJERO, ROCIO 4,500 6,900 36,000 0,200 47,600 4,500 6,900 36,000 0,100 47,500 15/12/2022
SELIGMANN PIETRANERA, PILAR 10,200 0,000 36,000 0,700 46,900 10,200 0,000 36,000 0,400 46,600 15/12/2022
SELIGMANN PIETRANERA, ROCIO 1,200 1,900 35,725 10,050 48,875 1,200 1,800 20,125 0,400 23,525 15/12/2022
SELLERA DOMINGUEZ, MARIA 9,900 5,250 36,000 0,000 51,150 9,900 4,350 36,000 0,000 50,250 15/12/2022
SELLÉS MESONERO, JAVIER 0,000 8,100 29,650 0,050 37,800 0,000 6,900 24,000 0,000 30,900 15/12/2022
SELLES SALGADO, ALMUDENA 8,400 1,200 36,000 0,000 45,600 8,400 1,200 36,000 0,000 45,600 15/12/2022
SELMA BUSTAMANTE, SOFIA OLGA 0,000 0,000 0,000 0,000 0,000 0,000 0,000 0,000 0,000 0,000 15/12/2022
SELMA CINTADO, ANA 0,900 0,800 35,000 3,000 39,700 0,900 0,000 29,500 3,000 33,400 15/12/2022
SELVA BARBA, ALBA 6,600 2,400 1,700 0,000 10,700 6,600 0,000 1,700 0,000 8,300 15/12/2022
SELVA CLEMENTE, JAVIER 0,000 8,550 25,800 0,000 34,350 0,000 0,000 21,650 0,000 21,650 15/12/2022
SELVA DÍEZ, MªDEL CAMPO 0,000 0,000 4,700 0,000 4,700 0,000 0,000 1,875 0,000 1,875 15/12/2022
SELVA PÉREZ, EVA MARIA 17,700 12,750 34,000 0,000 64,450 17,700 6,150 34,000 0,000 57,850 15/12/2022
SELVA RAMOS, IRENE 2,400 16,200 39,000 0,500 58,100 2,400 16,200 36,000 0,500 55,100 15/12/2022
SEMINARIO HERRERA, MARINA 0,000 24,300 13,050 0,000 37,350 0,000 24,300 13,050 0,000 37,350 15/12/2022
SEMPLICI ., NICOLA 0,000 24,600 32,000 0,000 56,600 0,000 20,400 30,000 0,000 50,400 15/12/2022
SENABRE PÉREZ DE LA CRUZ, ANA MARTA 9,600 0,000 36,000 5,000 50,600 9,600 0,000 36,000 5,000 50,600 15/12/2022
SENAWEY BLANCO, ARANTXA 17,100 0,900 36,000 1,000 55,000 17,100 0,900 36,000 1,000 55,000 15/12/2022
SENDINO GONZÁLEZ, JORGE 0,000 9,000 30,000 0,000 39,000 0,000 9,000 26,350 0,000 35,350 15/12/2022
SENDRA JIMENEZ, HORTENSIA 5,700 1,800 26,700 0,000 34,200 5,700 0,600 19,200 0,000 25,500 15/12/2022
SENDRA LUQUE, Mª JESÚS 0,300 0,000 30,000 0,150 30,450 0,300 0,000 26,550 0,150 27,000 15/12/2022
SENDRA PRADO, MARÍA 4,200 6,600 33,000 0,100 43,900 4,200 0,000 33,000 0,100 37,300 15/12/2022
SENERO MARTIN, IRENE 0,000 15,000 32,000 0,000 47,000 0,000 11,100 29,400 0,000 40,500 15/12/2022
SENERO PÉREZ, CLARA 0,000 6,600 33,000 0,000 39,600 0,000 0,600 33,000 0,000 33,600 15/12/2022
SENHADJI NAVARRO, NURIA 0,000 43,200 27,700 0,000 70,900 0,000 43,200 0,000 0,000 43,200 15/12/2022
SENIN ANDRADE, LAURA 15,000 2,800 36,000 0,000 53,800 15,000 2,800 36,000 0,000 53,800 15/12/2022
SENIN BOZA, MARIA ENRIQUETA 70,000 3,600 36,000 6,550 112,550 70,000 0,000 36,000 6,550 112,550 15/12/2022
SENOVILLA TRINIDAD, FRANCISCO 0,900 24,300 36,000 1,800 63,000 0,900 26,100 36,000 0,600 63,000 15/12/2022
SEÑALADA SALINAS, LAURA 5,700 0,600 38,000 1,550 45,850 5,700 0,600 38,000 1,300 45,600 15/12/2022
SEÑAS SANVICENTE, NOELIA 1,800 16,800 30,000 0,000 48,600 1,800 16,800 30,000 0,000 48,600 15/12/2022
SEÑORET QUIROS, CARMEN 59,100 0,300 36,000 3,300 98,700 59,100 0,000 36,000 3,000 98,100 15/12/2022
SEOANE BEJARANO, Mª ARANZAZU 36,300 6,600 34,000 3,000 79,900 36,300 6,300 34,000 0,000 76,600 15/12/2022
SEOANE MOYA, BELLA 0,000 2,100 23,650 1,300 27,050 0,000 0,000 23,650 0,000 23,650 15/12/2022
SEOANE ORTEGA, MARIO 0,000 6,000 30,000 0,000 36,000 0,000 6,000 30,000 0,000 36,000 15/12/2022
SEOBANI ÁLVAREZ, NAID 0,300 0,900 30,000 0,000 31,200 0,300 0,900 30,000 0,000 31,200 15/12/2022
SEPULVEDA BUENO, ANA BELEN 0,000 55,500 30,000 0,000 85,500 0,000 53,550 27,475 0,000 81,025 15/12/2022
SEPULVEDA GARCIA, EDUARDA Mª 0,300 42,900 29,500 0,000 72,700 0,300 33,900 29,500 0,000 63,700 15/12/2022
SEPÚLVEDA HARO, IRENE 0,600 0,000 3,200 0,000 3,800 0,600 0,000 3,200 0,000 3,800 15/12/2022
SEPÚLVEDA HARO, JAIME 0,000 11,700 39,000 5,400 56,100 0,000 0,000 33,500 4,400 37,900 15/12/2022
SEPULVEDA LOPEZ, GABRIEL 0,000 10,200 14,250 0,000 24,450 0,000 4,800 8,600 0,000 13,400 15/12/2022
SEPULVEDA LOPEZ, Mª TRINIDAD 6,300 24,600 39,000 0,150 70,050 6,300 24,600 39,000 0,000 69,900 15/12/2022
SEPULVEDA PALMA, OLGA 18,600 0,000 39,000 9,300 66,900 18,600 0,000 39,000 8,250 65,850 15/12/2022
SEPULVEDA REY, INMACULADA MARIA 2,400 12,900 36,000 0,300 51,600 2,400 9,600 36,000 0,000 48,000 15/12/2022
SEPULVEDA SOTO, LIDIA 0,300 17,100 32,000 0,000 49,400 0,300 9,000 32,000 0,000 41,300 15/12/2022
SEPÚLVEDA ZORRILLA, LUCÍA 5,400 4,100 36,000 0,000 45,500 5,400 0,000 35,000 0,000 40,400 15/12/2022
SEQUERA RODRÍGUEZ, MARÍA 13,200 0,000 36,000 0,000 49,200 13,200 0,000 36,000 0,000 49,200 15/12/2022
SERBAN TOFAN, GABRIELA 33,000 30,300 30,000 0,000 93,300 33,000 28,800 30,000 0,000 58,800 15/12/2022
SEREN COUSO, ELENA 0,000 24,400 29,050 0,200 53,650 0,000 10,000 27,000 0,200 37,200 15/12/2022
SERENA GÓMEZ, BEATRIZ 4,200 6,000 33,000 3,300 46,500 4,200 4,500 33,000 3,000 44,700 15/12/2022
SERENO VILLAR, Mª GUADALUPE 0,000 2,400 12,475 3,000 17,875 0,000 1,800 7,475 3,000 12,275 15/12/2022
SERNA AGUION, FERNANDO 70,000 0,000 33,000 0,000 103,000 70,000 0,000 27,050 0,000 97,050 15/12/2022
SERNA FRANCIA, ANA 0,000 46,500 30,000 0,000 76,500 0,000 48,300 30,000 0,000 76,500 15/12/2022
SERNA GONZÁLEZ, ISABEL 0,000 15,300 33,000 0,000 48,300 0,000 1,500 10,150 0,000 11,650 15/12/2022
SERNA JURADO, ÁLVARO 0,000 6,900 15,250 0,000 22,150 0,000 0,000 8,975 0,000 8,975 15/12/2022
SERNÁNDEZ YEBRA, JOAQUÍN 0,600 39,000 30,000 0,000 69,600 0,600 37,200 30,000 0,000 67,800 15/12/2022
SERRA ARRANZ, LIDIA 0,000 18,300 32,000 0,000 50,300 0,000 11,400 30,000 0,000 41,400 15/12/2022
SERRALVO CABALLERO, ISRAEL 2,400 2,850 21,425 0,000 26,675 2,400 2,850 18,400 0,000 23,650 15/12/2022
SERRÁN GONZÁLEZ, INMACULADA 3,000 7,300 36,000 6,300 52,600 3,000 0,000 36,000 6,100 45,100 15/12/2022
SERRÁN LUQUE, MELODY MARIA 6,300 0,000 36,000 1,850 44,150 6,300 0,000 36,000 0,700 43,000 15/12/2022
SERRAN PEREA, ANTONIO JESUS 3,600 3,600 39,000 0,200 46,400 3,600 0,000 39,000 0,000 42,600 15/12/2022
SERRANO ACEDO, MANUELA 0,000 10,150 36,000 0,000 46,150 0,000 8,850 36,000 0,000 44,850 15/12/2022
SERRANO ACOSTA, MARTA 1,200 0,000 30,000 0,000 31,200 1,200 0,000 28,850 0,000 30,050 15/12/2022
SERRANO AGUILAR, PATRICIA 12,600 0,000 39,000 3,000 54,600 12,600 0,000 38,000 3,000 53,600 15/12/2022
SERRANO AGUILERA, Mª LUISA 38,700 0,000 36,000 0,000 74,700 38,700 0,000 36,000 0,000 74,700 15/12/2022
SERRANO ALAMEDA, NOELIA 6,000 0,000 30,000 0,000 36,000 6,000 0,000 30,000 0,000 36,000 15/12/2022
SERRANO ALISEDA, MARÍA DEL MAR 0,000 0,000 15,625 0,000 15,625 0,000 0,000 12,500 0,000 12,500 15/12/2022
SERRANO ALONSO, CARLOS 26,400 0,000 39,000 3,000 68,400 26,400 0,000 31,250 3,000 60,650 15/12/2022
SERRANO ALVAREZ, MERCEDES 28,500 0,000 39,000 6,900 74,400 28,500 0,000 39,000 4,900 72,400 15/12/2022
SERRANO ANDÚJAR, LUISA 0,000 35,100 36,000 3,000 74,100 0,000 27,900 34,000 3,000 64,900 15/12/2022
SERRANO ANGEL, MARINA 1,500 0,300 33,000 0,000 34,800 1,500 0,000 33,000 0,000 34,500 15/12/2022
SERRANO APARICIO, JULIA 0,000 0,000 33,000 0,000 33,000 0,000 0,000 33,000 0,000 33,000 15/12/2022
SERRANO ARAGÓN, EVA MARÍA 0,900 21,900 30,000 3,000 55,800 0,900 21,900 30,000 3,000 55,800 15/12/2022
SERRANO ARBOLEDA, MARIA DEL MAR 0,000 0,000 30,000 0,000 30,000 0,000 0,000 25,450 0,000 25,450 15/12/2022
SERRANO ARENAS, CRISTINA 0,000 7,500 35,000 0,800 43,300 0,000 1,500 32,000 0,000 33,500 15/12/2022
SERRANO ARENAS, MONSERRAT 0,000 15,800 37,000 4,350 57,150 0,000 15,600 34,550 3,450 53,600 15/12/2022
SERRANO ARJONA, AURELIO 5,100 1,000 27,000 0,000 33,100 5,100 0,000 24,000 0,000 29,100 15/12/2022
SERRANO BALDONEDO, JESICA SOLANGE 13,200 1,800 36,000 0,000 51,000 13,200 1,800 36,000 0,000 51,000 15/12/2022
SERRANO BIMBELA, FERNANDO 1,500 0,300 39,000 0,000 40,800 1,500 0,300 39,000 0,000 40,800 15/12/2022
SERRANO BLANCO, Mª DOLORES 19,200 0,400 36,000 17,750 73,350 19,200 0,000 36,000 7,050 62,250 15/12/2022
SERRANO BONILLA, ASUNCIÓN 0,000 0,600 30,000 1,750 32,350 0,000 0,000 0,000 0,050 0,050 15/12/2022
SERRANO CABELLO, TAMARA 0,000 1,050 35,000 6,000 42,050 0,000 0,000 35,000 6,000 41,000 15/12/2022
SERRANO CANTERLA, Mª ÁNGELES 0,000 33,300 39,000 0,000 72,300 0,000 26,400 36,000 0,000 62,400 15/12/2022
SERRANO CANTÓN, ELISA 6,300 0,000 23,400 0,000 29,700 6,300 0,000 21,500 0,000 27,800 15/12/2022
SERRANO CAÑADAS, DAMIANA 2,100 0,000 26,050 0,000 28,150 2,100 0,000 26,050 0,000 28,150 15/12/2022
SERRANO CARABALLO, VERÓNICA 12,000 0,000 36,000 0,150 48,150 12,000 0,000 36,000 0,150 48,150 15/12/2022
SERRANO CÁRDENAS, MARÍA 0,000 5,200 36,000 0,000 41,200 0,000 4,800 36,000 0,000 40,800 15/12/2022
SERRANO CARRILLO DE ALBORNOZ, VICENTE 55,200 0,300 39,000 1,050 95,550 55,200 0,000 39,000 0,350 94,550 15/12/2022
SERRANO CARRILLO, Mª ISABEL 23,400 2,050 36,000 12,700 74,150 23,400 1,800 36,000 7,200 68,400 15/12/2022
SERRANO CASERO, MARTA ROCIO 26,700 8,550 39,000 3,000 77,250 26,700 2,250 39,000 3,000 70,950 15/12/2022
SERRANO CASTAÑO, ROCIO 25,200 9,400 36,000 0,300 70,900 25,200 8,100 33,750 0,000 67,050 15/12/2022
SERRANO CASTILLO, ANA 0,000 26,150 39,000 0,000 65,150 0,000 16,750 23,600 0,000 40,350 15/12/2022
SERRANO CATENA, MARIA TERESA 0,600 70,200 37,000 2,350 109,350 0,600 70,200 32,000 1,125 103,125 15/12/2022
SERRANO CECILIA, CECILIA 15,900 5,000 39,000 9,600 69,500 15,900 5,000 39,000 4,500 64,400 15/12/2022
SERRANO CHATAO, CRISTINA 6,600 2,400 36,000 0,600 45,600 6,600 0,000 36,000 0,600 43,200 15/12/2022
SERRANO CRUZADO, JESUS 0,000 10,800 36,000 0,000 46,800 0,000 5,400 31,600 0,000 37,000 15/12/2022
SERRANO DEL ARCO, EVA MARIA 1,200 9,300 39,000 1,500 51,000 1,200 9,300 39,000 1,500 51,000 15/12/2022
SERRANO DEL POZO, JOSE GUILLERMO 30,600 0,000 30,000 3,000 63,600 30,600 0,000 30,000 3,000 63,600 15/12/2022
SERRANO DEL ROSAL, MARIA GRACIA 12,000 16,100 33,000 6,000 67,100 12,000 15,900 33,000 6,000 66,900 15/12/2022
SERRANO DEVIS, PACO 0,000 5,100 36,000 3,550 44,650 0,000 5,100 36,000 1,400 42,500 15/12/2022
SERRANO DORADO, PEDRO 0,000 13,500 6,500 0,000 20,000 0,000 0,000 4,000 0,000 4,000 15/12/2022
SERRANO DURAN, CARLOS ANDRES 20,100 18,300 39,000 0,050 77,450 20,100 9,600 39,000 0,050 68,750 15/12/2022
SERRANO DURÁN, PABLO 20,700 0,750 36,000 3,000 60,450 20,700 0,750 36,000 3,000 60,450 15/12/2022
SERRANO ECHEVARRIA, PEDRO 0,000 64,500 30,000 0,000 94,500 0,000 64,500 30,000 0,000 94,500 15/12/2022
SERRANO ESCALONA, INMACULADA 2,100 44,700 29,975 3,200 79,975 2,100 0,000 11,875 3,200 17,175 15/12/2022
SERRANO ESPIGARES, ALBA 0,300 8,100 32,000 0,200 40,600 0,300 4,800 30,000 0,200 35,300 15/12/2022
SERRANO EXPÓSITO, ANA 0,000 7,200 36,000 0,000 43,200 0,000 7,200 36,000 0,000 43,200 15/12/2022
SERRANO FERNÁNDEZ, CLARA 1,200 0,000 30,000 0,000 31,200 1,200 0,000 30,000 0,000 31,200 15/12/2022
SERRANO FERNANDEZ, IGNACIO JAVIER 2,100 51,300 32,000 9,000 94,400 2,100 51,300 32,000 9,000 94,400 15/12/2022
SERRANO FERNANDEZ, Mª DOLORES 12,300 3,600 36,000 1,300 53,200 12,300 0,900 36,000 0,900 50,100 15/12/2022
SERRANO FERNÁNDEZ, MARCOS 0,000 12,300 36,000 3,300 51,600 0,000 12,300 36,000 0,500 48,800 15/12/2022
SERRANO FERNANDEZ, MARIA DEL VALLE 0,000 37,200 30,000 0,300 67,500 0,000 37,200 30,000 0,000 67,200 15/12/2022
SERRANO FERNANDEZ, YASMINA 6,600 3,600 36,000 2,000 48,200 6,600 1,800 36,000 2,000 46,400 15/12/2022
SERRANO FLORES, CLARA 6,000 0,300 38,000 0,000 44,300 6,000 0,000 38,000 0,000 44,000 15/12/2022
SERRANO FRANCO, MARÍA DEL ROCÍO 6,300 0,000 32,000 0,000 38,300 6,300 0,000 30,000 0,000 36,300 15/12/2022
SERRANO GALLÁN, RAQUEL 5,150 29,700 30,000 0,000 64,850 5,150 27,000 30,000 0,000 62,150 15/12/2022
SERRANO GALLÁN, SILVIA MARÍA 6,050 26,700 30,000 0,000 62,750 6,050 26,700 30,000 0,000 62,750 15/12/2022
SERRANO GARCÍA, CRISTINA 9,600 0,000 36,000 3,400 49,000 9,600 0,000 36,000 2,500 48,100 15/12/2022
SERRANO GARCIA, IRENE 21,300 3,750 36,000 0,100 61,150 21,300 3,750 36,000 0,100 61,150 15/12/2022
SERRANO GARCIA, MIGUEL 0,600 28,300 33,000 0,375 62,275 0,600 15,600 30,000 0,200 46,400 15/12/2022
SERRANO GARRIDO, CONCEPCION 70,000 0,000 32,000 0,100 102,100 70,000 0,000 32,000 0,100 102,100 15/12/2022
SERRANO GODOY, SILVIA MARIA 70,000 0,000 36,000 0,000 106,000 70,000 0,000 36,000 0,000 100,500 15/12/2022
SERRANO GÓMEZ, ANA 0,900 0,000 36,000 0,000 36,900 0,900 0,000 31,330 0,000 32,230 15/12/2022
SERRANO GOMEZ, IRENE 0,000 9,300 30,000 0,000 39,300 0,000 8,400 30,000 0,000 38,400 15/12/2022
SERRANO GONZÁLEZ, CARIDAD 20,100 0,000 30,000 3,300 53,400 20,100 0,000 30,000 3,000 53,100 15/12/2022
SERRANO GONZALEZ, Mª JESÚS 12,900 0,000 30,000 0,000 42,900 12,900 0,000 20,575 0,000 33,475 15/12/2022
SERRANO GONZÁLEZ, MANUEL 0,000 1,200 33,000 0,000 34,200 0,000 1,200 33,000 0,000 34,200 15/12/2022
SERRANO GONZÁLEZ, MARIA LUISA 0,900 27,000 28,100 0,000 56,000 0,900 27,000 19,100 0,000 47,000 15/12/2022
SERRANO GUERRERO, ENCARNACION 21,600 13,100 36,000 4,000 74,700 21,600 0,000 36,000 4,000 61,600 15/12/2022
SERRANO HERAS, MARIA DEL PILAR 0,000 0,300 3,000 0,000 3,300 0,000 0,000 0,000 0,000 0,000 15/12/2022
SERRANO JARAMILLO, SARA 5,100 7,500 36,000 0,300 48,900 5,100 3,600 36,000 0,200 44,900 15/12/2022
SERRANO JIMENEZ, CRISTINA 0,000 10,200 28,275 0,200 38,675 0,000 0,000 0,000 0,000 0,000 15/12/2022
SERRANO JIMENEZ, HUGO 0,000 15,600 24,625 0,000 40,225 0,000 0,000 0,250 0,000 0,250 15/12/2022
SERRANO JURADO, ELIZABET 4,800 6,300 36,000 0,000 47,100 4,800 6,300 36,000 0,000 47,100 15/12/2022
SERRANO JURADO, ENCARNACION 70,000 0,000 30,000 3,000 103,000 70,000 0,000 30,000 3,000 103,000 15/12/2022
SERRANO JURADO, SONIA 19,200 0,000 36,000 1,000 56,200 19,200 0,000 36,000 0,800 56,000 15/12/2022
SERRANO JUSTICIA, MARIA DOLORES 1,200 19,100 39,000 1,550 60,850 1,200 17,900 39,000 1,550 59,650 15/12/2022
SERRANO LÓPEZ, ANA 6,000 2,400 36,000 1,500 45,900 6,000 0,000 36,000 1,500 43,500 15/12/2022
SERRANO LOPEZ, LEANDRO 40,500 27,000 35,000 4,150 106,650 40,500 9,300 15,000 3,150 67,950 15/12/2022
SERRANO LÓPEZ, Mª DEL CARMEN 7,200 12,550 36,000 1,375 57,125 7,200 0,000 36,000 0,575 43,775 15/12/2022
SERRANO LÓPEZ, PABLO 0,600 11,100 17,300 0,000 29,000 0,600 0,000 13,800 0,000 14,400 15/12/2022
SERRANO LÓPEZ, SUSANA Mª 39,000 3,300 36,000 0,000 78,300 39,000 3,300 36,000 0,000 78,300 15/12/2022
SERRANO LOZANO, MARIA SOL 0,000 35,250 33,000 3,000 71,250 0,000 0,900 33,000 3,000 36,900 15/12/2022
SERRANO LUCENA, MARÍA CLARINES 70,000 0,250 39,000 7,025 116,025 70,000 0,000 36,000 6,700 112,700 15/12/2022
SERRANO LUQUE, MARÍA JOSÉ 12,900 2,500 36,000 9,100 60,500 12,900 0,000 36,000 8,100 57,000 15/12/2022
SERRANO MADERO, ELIZABETH 1,800 3,000 21,050 0,600 26,450 1,800 0,000 21,050 0,600 23,450 15/12/2022
SERRANO MALDONADO, SONIA MARIA 0,600 21,900 36,000 1,525 60,025 0,600 19,800 36,000 0,925 57,325 15/12/2022
SERRANO MARIN, ANTONIA 0,000 33,000 33,000 0,300 66,300 0,000 30,900 33,000 0,150 64,050 15/12/2022
SERRANO MARIN, JOSEFA 0,000 62,150 30,000 3,000 95,150 0,000 52,850 30,000 3,000 85,850 15/12/2022
SERRANO MARTIN, INMACULADA 22,500 10,400 36,000 0,500 69,400 22,500 0,000 36,000 0,500 59,000 15/12/2022
SERRANO MARTIN, M BELEN 55,500 0,000 36,000 0,000 91,500 55,500 0,000 36,000 0,000 91,500 15/12/2022
SERRANO MARTINEZ, JESUS 0,000 23,400 30,000 3,100 56,500 0,000 23,400 30,000 3,050 56,450 15/12/2022
SERRANO MARTINEZ, JUANA 0,000 44,100 39,000 20,000 103,100 0,000 43,800 39,000 3,000 85,800 15/12/2022
SERRANO MARTIR, ALEJANDRA 0,000 21,200 30,000 0,000 51,200 0,000 20,100 30,000 0,000 50,100 15/12/2022
SERRANO MENDIETA, LUIS MIGUEL 0,600 18,900 33,000 0,000 52,500 0,600 17,700 33,000 0,000 51,300 15/12/2022
SERRANO MONTILLA, ALBERTO 4,800 1,400 30,000 0,500 36,700 4,800 0,000 30,000 0,000 34,800 15/12/2022
SERRANO MONTOYA, JOSE CARLOS 0,000 15,900 36,000 0,000 51,900 0,000 2,400 36,000 0,000 38,400 15/12/2022
SERRANO MORANTE, PATRICIA 0,000 8,700 36,000 1,400 46,100 0,000 2,100 35,000 0,500 37,600 15/12/2022
SERRANO MORENO, MARÍA DEL PILAR 3,300 35,700 30,000 0,300 69,300 3,300 35,700 30,000 0,000 69,000 15/12/2022
SERRANO MORILLO, MARÍA JOSÉ 0,000 16,500 34,000 0,000 50,500 0,000 16,500 34,000 0,000 50,500 15/12/2022
SERRANO MORO, MªCARMEN 49,500 1,100 36,000 0,000 86,600 49,500 1,100 36,000 0,000 86,600 15/12/2022
SERRANO MOYA, ANA MARIA 4,800 4,500 36,000 0,000 45,300 4,800 0,000 36,000 0,000 40,800 15/12/2022
SERRANO MUÑOZ, Mª SANDRA 9,300 0,000 36,000 7,000 52,300 9,300 0,000 36,000 4,000 49,300 15/12/2022
SERRANO NAVA, JULIA 0,000 21,900 30,000 0,000 51,900 0,000 21,900 30,000 0,000 51,900 15/12/2022
SERRANO NAVARRO, ANGEL ALBERTO 6,300 19,500 30,000 0,100 55,900 6,300 0,000 30,000 0,050 36,350 15/12/2022
SERRANO NAVARRO, BELEN 9,000 0,000 36,000 1,900 46,900 9,000 0,000 36,000 1,900 46,900 15/12/2022
SERRANO NAVARRO, IRENE 0,000 7,800 33,000 0,900 41,700 0,000 7,800 33,000 0,900 41,700 15/12/2022
SERRANO NIETO, MARCOS 0,900 29,500 26,500 0,000 56,900 0,900 13,600 6,025 0,000 20,525 15/12/2022

* Los candidatos marcados con un asterisco no alcanzan la nota mínima exigida una vez baremados

- Al posicionarse sobre el número de página le aparecerá el rango alfabético de apellidos, nombre que contiene dicha página

[1]  [2]  [3]  [4]  [5]  [6]  [7]  [8]  [9]  [10]  [11]  [12]  [13]  [14]  [15]  [16]  [17]  [18]  [19]  [20]  [21]  [22]  [23]  [24]  [25]  [26]  [27]  [28]  [29]  [30]  [31]  [32]  [33]  [34]  [35]  [36]  [37]  [38]  [39]  [40]  [41]  [42]  [43]  [44]  [45]  [46]  [47]  [48]  [49]  [50]  [51]  [52]  [53]  [54]  [55]  [56]  [57]  [58]  [59]  [60]  [61]  [62]  [63]  [64]  [65]  [66]  [67]  [68]  [69]  [70]  [71]  [72]  [73]  [74]  [75]  [76]  [77]  [78]  [79]  [80]  [81]  [82]  [83]  [84]  [85]  [86]  [87]  [88]  [89]  [90]  [91]  [92]  [93]  [94]  [95]  [96]  [97]  [98]  [99]  [100]  [101]  [102]  [103]  [104]  [105]  [106]  [107]  [108]  [109]  [110]  [111]  [112]  [113]  [114]  [115]  [116]  [117]  [118]  [119]  [120]  [121]  [122]  [123]  [124]  [125]  [126]  [127]  [128]  [129]  [130]  [131]  [132]  [133]  [134]  [135]  [136]  [137]  [138]  [139]  [140]  [141]  [142]  [143]  [144]  [145]  [146]  [147]  [148]  [149]  [150]  [151]  [152]  [153]  [154]  [155]  [156]  [157]  [158]  [159]  [160]  [161]  [162]  [163]  [164]  [165]  [166]  [167]  [168]  [169]  [170]  [171]  [172]  [173]  [174]  [175]  [176]  [177]  [178]  [179]  [180]  [181]  [182]  [183]  [184]  [185]  [186]  [187]  [188]  [189]  [190]  [191]  [192]  [193]  [194]  [195]  [196]  [197]  [198]  [199]  [200]  [201]  [202] 


Color de candidatos/as que por autobaremo alcanzan puntuación mínima para formar parte de la bolsa Candidatos/as que por autobaremo alcanzan puntuación mínima para formar parte de la bolsa

Color de Candidatos/as que no alcanzan puntuación mínima para formar parte de la bolsa Candidatos/as que no alcanzan puntuación mínima para formar parte de la bolsa



[Volver]